Time;durP1;ratioP1;P1;durP2;ratioP2;P2;SDS_P1;SDS_P2;PMS_P1;PMS_P2;Temp;Humidity;BMP_temperature;BMP_pressure;BME280_temperature;BME280_humidity;BME280_pressure;Samples;Min_cycle;Max_cycle;Signal;HPM_P1;HPM_P2
2021/09/30 00:00:14;;;;;;;2.97;0.25;;;24.30;44.90;;;;;;4996646;28;20042;-45
2021/09/30 00:02:42;;;;;;;0.15;0.10;;;24.30;44.90;;;;;;4999516;28;20038;-44
2021/09/30 00:05:12;;;;;;;0.95;0.28;;;24.30;44.90;;;;;;4988670;28;20061;-45
2021/09/30 00:07:39;;;;;;;2.10;0.30;;;24.30;44.80;;;;;;5041352;28;20461;-46
2021/09/30 00:10:09;;;;;;;1.48;0.30;;;24.30;44.80;;;;;;5050363;28;20041;-46
2021/09/30 00:12:40;;;;;;;1.10;0.10;;;24.30;44.80;;;;;;5061005;28;20532;-46
2021/09/30 00:15:11;;;;;;;0.20;0.10;;;24.30;44.70;;;;;;5060316;28;20075;-46
2021/09/30 00:17:58;;;;;;;2.30;0.20;;;24.30;44.70;;;;;;5057099;28;20742;-44
2021/09/30 00:34:14;;;;;;;0.20;0.10;;;24.20;44.70;;;;;;5063757;28;20132;-45
2021/09/30 00:42:37;;;;;;;0.15;0.10;;;24.20;44.70;;;;;;5039451;28;20611;-45
2021/09/30 00:47:57;;;;;;;3.33;0.10;;;24.20;44.70;;;;;;5038221;28;20048;-45
2021/09/30 00:50:29;;;;;;;1.75;0.10;;;24.20;44.80;;;;;;5021323;28;20063;-46
2021/09/30 00:53:10;;;;;;;2.05;0.10;;;24.20;44.80;;;;;;5038576;28;20041;-50
2021/09/30 00:56:07;;;;;;;2.35;0.32;;;24.20;44.90;;;;;;5012813;28;20076;-47
2021/09/30 01:33:47;;;;;;;1.00;1.00;;;24.10;45.50;;;;;;4766277;30;20055;-48
2021/09/30 02:21:46;;;;;;;0.20;0.20;;;23.90;45.50;;;;;;5038889;28;21103;-46
2021/09/30 02:30:01;;;;;;;0.10;0.00;;;23.90;45.60;;;;;;5045859;28;20459;-46
2021/09/30 03:00:38;;;;;;;0.13;0.00;;;23.80;46.00;;;;;;5062121;28;20098;-46
2021/09/30 03:03:05;;;;;;;0.30;0.10;;;23.80;45.90;;;;;;5054298;28;20087;-49
2021/09/30 03:05:34;;;;;;;1.10;0.10;;;23.80;45.90;;;;;;5051086;28;20071;-46
2021/09/30 03:08:03;;;;;;;0.75;0.00;;;23.80;45.90;;;;;;5049832;28;20037;-46
2021/09/30 03:10:31;;;;;;;1.05;0.03;;;23.80;45.90;;;;;;5062407;28;20053;-48
2021/09/30 03:12:59;;;;;;;2.75;0.43;;;23.80;45.90;;;;;;5050888;28;20110;-47
2021/09/30 03:15:39;;;;;;;0.70;0.08;;;23.80;45.80;;;;;;5059797;28;20045;-46
2021/09/30 03:18:26;;;;;;;0.65;0.00;;;23.80;45.80;;;;;;5051595;28;20041;-50
2021/09/30 03:22:00;;;;;;;0.20;0.10;;;23.80;45.80;;;;;;5057184;28;20048;-46
2021/09/30 03:23:47;;;;;;;1.48;0.25;;;23.80;45.80;;;;;;5059562;28;20055;-46
2021/09/30 03:26:16;;;;;;;2.08;0.00;;;23.80;45.80;;;;;;5050116;28;20040;-48
2021/09/30 03:28:45;;;;;;;0.47;0.10;;;23.80;45.80;;;;;;5049165;28;20584;-48
2021/09/30 03:31:13;;;;;;;2.47;0.20;;;23.80;45.80;;;;;;5062277;28;20566;-47
2021/09/30 03:34:01;;;;;;;0.17;0.00;;;23.80;45.80;;;;;;5064042;28;20052;-48
2021/09/30 03:36:29;;;;;;;0.60;0.00;;;23.70;45.70;;;;;;5065796;28;20158;-46
2021/09/30 03:38:57;;;;;;;0.57;0.10;;;23.80;46.10;;;;;;5055411;28;20037;-46
2021/09/30 03:41:24;;;;;;;1.77;0.10;;;23.80;45.70;;;;;;5050165;28;20041;-45
2021/09/30 03:43:51;;;;;;;0.05;0.00;;;23.70;45.60;;;;;;5049875;28;20198;-47
2021/09/30 03:46:19;;;;;;;0.20;0.00;;;23.70;45.70;;;;;;5060803;28;20040;-44
2021/09/30 03:49:24;;;;;;;0.95;0.10;;;23.70;45.70;;;;;;5049736;28;20269;-45
2021/09/30 03:51:58;;;;;;;0.45;0.00;;;23.70;45.70;;;;;;5063900;28;20488;-46
2021/09/30 03:54:34;;;;;;;0.00;0.00;;;23.70;45.80;;;;;;5070917;28;20041;-45
2021/09/30 03:57:08;;;;;;;;;;;23.70;45.70;;;;;;5056583;28;20506;-44
2021/09/30 03:59:34;;;;;;;0.57;0.00;;;23.70;45.70;;;;;;5059923;28;20270;-46
2021/09/30 04:02:27;;;;;;;0.30;0.00;;;23.60;45.90;;;;;;5061903;28;20067;-46
2021/09/30 04:04:54;;;;;;;0.05;0.00;;;23.60;45.80;;;;;;5053671;28;20044;-46
2021/09/30 04:07:22;;;;;;;0.20;0.00;;;23.70;45.90;;;;;;5052909;28;20615;-46
2021/09/30 04:09:51;;;;;;;2.35;0.10;;;23.70;45.90;;;;;;5065612;28;20409;-47
2021/09/30 04:12:18;;;;;;;1.10;0.03;;;23.60;45.80;;;;;;5054579;28;20044;-45
2021/09/30 04:14:45;;;;;;;0.75;0.00;;;23.70;45.80;;;;;;5054878;28;20045;-46
2021/09/30 04:17:12;;;;;;;0.25;0.00;;;23.70;45.80;;;;;;5057423;28;20033;-45
2021/09/30 04:19:41;;;;;;;0.22;0.00;;;23.70;45.70;;;;;;5052686;28;20053;-45
2021/09/30 04:22:08;;;;;;;0.28;0.03;;;23.70;45.70;;;;;;5067322;28;20048;-45
2021/09/30 04:24:36;;;;;;;1.10;0.10;;;23.60;45.60;;;;;;5054991;28;20775;-45
2021/09/30 04:27:07;;;;;;;4.43;0.00;;;23.70;45.70;;;;;;5052807;28;20044;-45
2021/09/30 04:29:34;;;;;;;0.43;0.43;;;23.60;45.70;;;;;;5054598;28;20065;-47
2021/09/30 04:32:01;;;;;;;0.45;0.03;;;23.60;45.70;;;;;;5063452;28;20108;-51
2021/09/30 04:34:29;;;;;;;0.22;0.05;;;23.60;45.60;;;;;;5052180;28;20043;-47
2021/09/30 04:36:56;;;;;;;1.05;0.00;;;23.60;45.60;;;;;;5049699;28;20045;-46
2021/09/30 04:39:25;;;;;;;2.95;0.00;;;23.60;45.60;;;;;;5068625;28;20447;-46
2021/09/30 04:41:52;;;;;;;0.22;0.05;;;23.60;45.60;;;;;;5060749;28;20040;-46
2021/09/30 04:44:22;;;;;;;0.65;0.10;;;23.60;45.50;;;;;;5054354;28;20052;-45
2021/09/30 04:46:53;;;;;;;0.30;0.10;;;23.60;45.50;;;;;;5063967;28;20055;-46
2021/09/30 04:49:56;;;;;;;0.70;0.00;;;23.60;45.50;;;;;;5051808;28;20041;-45
2021/09/30 04:52:24;;;;;;;0.73;0.00;;;23.50;45.50;;;;;;5066970;28;20045;-48
2021/09/30 04:54:51;;;;;;;4.68;0.10;;;23.50;45.50;;;;;;5066459;28;20131;-48
2021/09/30 04:57:18;;;;;;;1.17;0.00;;;23.60;45.50;;;;;;5056542;28;20136;-45
2021/09/30 04:59:47;;;;;;;1.83;0.20;;;23.50;45.50;;;;;;5054672;28;20114;-46
2021/09/30 05:02:47;;;;;;;0.50;0.10;;;23.60;45.50;;;;;;5045509;28;20084;-48
2021/09/30 05:05:15;;;;;;;0.35;0.05;;;23.50;45.50;;;;;;5059892;28;20033;-48
2021/09/30 05:07:42;;;;;;;3.50;0.10;;;23.50;45.50;;;;;;5063482;28;20414;-45
2021/09/30 05:10:17;;;;;;;0.45;0.10;;;23.50;45.40;;;;;;5051138;28;20187;-44
2021/09/30 05:12:44;;;;;;;1.45;0.73;;;23.50;45.50;;;;;;5064503;28;20493;-46
2021/09/30 05:15:13;;;;;;;0.15;0.03;;;23.50;45.40;;;;;;5063880;28;20578;-46
2021/09/30 05:17:41;;;;;;;0.20;0.00;;;23.50;45.40;;;;;;5059660;28;20052;-45
2021/09/30 05:20:11;;;;;;;1.95;0.20;;;23.50;45.40;;;;;;5053866;28;20506;-47
2021/09/30 05:22:38;;;;;;;0.25;0.10;;;23.50;45.40;;;;;;5033784;28;20040;-47
2021/09/30 05:25:06;;;;;;;0.38;0.17;;;23.50;45.40;;;;;;5051137;28;20060;-47
2021/09/30 05:27:33;;;;;;;1.60;0.10;;;23.50;45.40;;;;;;5052929;28;20040;-46
2021/09/30 05:30:01;;;;;;;1.17;0.17;;;23.50;45.40;;;;;;5059045;28;20630;-45
2021/09/30 05:32:32;;;;;;;4.57;0.10;;;23.50;45.40;;;;;;5062760;28;20041;-45
2021/09/30 05:35:06;;;;;;;0.63;0.10;;;23.50;45.40;;;;;;5050083;28;20121;-46
2021/09/30 05:37:44;;;;;;;0.20;0.20;;;23.50;45.40;;;;;;5065370;28;20033;-45
2021/09/30 05:40:15;;;;;;;1.75;0.20;;;23.50;45.40;;;;;;5050775;28;20162;-46
2021/09/30 05:42:44;;;;;;;2.58;0.10;;;23.50;45.40;;;;;;5052618;28;20137;-46
2021/09/30 05:45:15;;;;;;;1.17;0.52;;;23.50;45.40;;;;;;5050394;28;20163;-47
2021/09/30 05:47:44;;;;;;;1.08;0.10;;;23.50;45.30;;;;;;5056011;28;20045;-46
2021/09/30 05:50:14;;;;;;;0.10;0.10;;;23.50;45.30;;;;;;5061986;28;20041;-46
2021/09/30 05:52:56;;;;;;;0.40;0.10;;;23.50;45.30;;;;;;5066306;28;20036;-46
2021/09/30 05:55:42;;;;;;;7.05;0.10;;;23.40;45.30;;;;;;5052062;28;20043;-46
2021/09/30 05:58:10;;;;;;;2.20;0.10;;;23.40;45.40;;;;;;5048838;28;20559;-46
2021/09/30 06:00:45;;;;;;;4.03;0.50;;;23.40;45.40;;;;;;5062182;28;20067;-46
2021/09/30 06:11:46;;;;;;;1.75;0.10;;;23.30;45.60;;;;;;4977155;28;20123;-49
2021/09/30 06:14:15;;;;;;;0.95;0.10;;;23.20;45.60;;;;;;4998456;28;20042;-50
2021/09/30 06:16:47;;;;;;;1.38;0.10;;;23.20;45.70;;;;;;4992087;28;20046;-44
2021/09/30 06:19:20;;;;;;;1.58;0.15;;;23.20;45.90;;;;;;4980300;28;20051;-46
2021/09/30 06:21:49;;;;;;;2.00;0.10;;;23.20;46.20;;;;;;4978642;28;20057;-44
2021/09/30 06:24:17;;;;;;;1.35;0.20;;;23.20;46.30;;;;;;4977285;28;20140;-44
2021/09/30 06:26:52;;;;;;;2.55;0.10;;;23.20;46.40;;;;;;4979677;28;20050;-44
2021/09/30 06:29:19;;;;;;;2.15;0.10;;;23.20;46.50;;;;;;4971221;28;20043;-44
2021/09/30 06:31:48;;;;;;;0.52;0.20;;;23.20;46.60;;;;;;4983392;28;20050;-44
2021/09/30 06:34:35;;;;;;;0.77;0.10;;;23.20;46.60;;;;;;4996477;28;20044;-45
2021/09/30 06:37:09;;;;;;;0.47;0.10;;;23.20;46.70;;;;;;4995733;28;20049;-47
2021/09/30 06:39:37;;;;;;;1.30;0.10;;;23.20;46.80;;;;;;4990187;28;20523;-44
2021/09/30 06:42:06;;;;;;;2.67;0.10;;;23.20;46.80;;;;;;4996926;28;20125;-44
2021/09/30 06:44:49;;;;;;;1.65;0.20;;;23.10;46.70;;;;;;5062710;28;20051;-43
2021/09/30 06:47:29;;;;;;;1.73;0.10;;;23.10;46.80;;;;;;5063408;28;20040;-46
2021/09/30 06:50:12;;;;;;;0.43;0.10;;;23.10;46.80;;;;;;5063346;28;20115;-46
2021/09/30 06:52:45;;;;;;;0.20;0.10;;;23.10;46.90;;;;;;5061092;28;20128;-44
2021/09/30 06:55:32;;;;;;;2.17;0.10;;;23.10;46.90;;;;;;5062964;28;20515;-43
2021/09/30 06:58:25;;;;;;;0.30;0.10;;;23.00;46.90;;;;;;5052572;28;20131;-45
2021/09/30 07:01:27;;;;;;;10.55;5.35;;;23.10;46.90;;;;;;5024517;28;20123;-44
2021/09/30 07:04:13;;;;;;;31.23;11.75;;;23.00;47.50;;;;;;5022939;28;20087;-44
2021/09/30 07:07:08;;;;;;;47.22;16.77;;;23.10;48.20;;;;;;4965227;28;20152;-45
2021/09/30 07:09:35;;;;;;;42.38;15.23;;;23.10;49.20;;;;;;4950759;28;20066;-45
2021/09/30 07:12:04;;;;;;;36.13;12.98;;;23.10;49.70;;;;;;4949096;28;20059;-44
2021/09/30 07:14:31;;;;;;;25.75;9.57;;;23.10;50.00;;;;;;4965349;28;20038;-44
2021/09/30 07:16:58;;;;;;;31.67;11.10;;;23.10;49.90;;;;;;4961627;28;20121;-43
2021/09/30 07:19:26;;;;;;;22.30;9.50;;;23.10;49.70;;;;;;4950506;28;20400;-44
2021/09/30 07:21:53;;;;;;;34.45;10.82;;;23.10;49.50;;;;;;4952189;28;20150;-43
2021/09/30 07:24:21;;;;;;;26.48;8.82;;;23.10;51.60;;;;;;4967310;28;20427;-42
2021/09/30 07:26:49;;;;;;;27.95;8.98;;;23.10;53.10;;;;;;4964388;28;20550;-44
2021/09/30 07:29:16;;;;;;;31.63;8.10;;;23.20;53.50;;;;;;4965083;28;20520;-46
2021/09/30 07:31:43;;;;;;;19.63;5.93;;;23.20;53.40;;;;;;4962573;28;20073;-45
2021/09/30 07:34:12;;;;;;;21.38;6.80;;;23.20;53.40;;;;;;4963624;28;20042;-46
2021/09/30 07:36:40;;;;;;;25.75;6.65;;;23.20;53.50;;;;;;5002124;28;20061;-44
2021/09/30 07:39:07;;;;;;;19.27;6.60;;;23.20;53.60;;;;;;5004991;28;20049;-44
2021/09/30 07:41:37;;;;;;;18.77;6.30;;;23.20;53.60;;;;;;4999499;28;20038;-45
2021/09/30 07:44:06;;;;;;;19.20;5.68;;;23.20;53.60;;;;;;5021476;28;20068;-41
2021/09/30 07:46:34;;;;;;;11.48;4.45;;;23.20;53.10;;;;;;5047792;28;20048;-44
2021/09/30 07:49:03;;;;;;;14.52;4.00;;;23.20;53.20;;;;;;5060997;28;20044;-42
2021/09/30 07:51:30;;;;;;;12.32;5.38;;;23.20;53.10;;;;;;5051378;28;20067;-41
2021/09/30 07:53:58;;;;;;;13.48;4.55;;;23.20;53.10;;;;;;5052263;28;20051;-43
2021/09/30 07:56:27;;;;;;;14.15;3.72;;;23.20;53.00;;;;;;5062591;28;20127;-44
2021/09/30 07:58:55;;;;;;;17.00;3.95;;;23.20;52.90;;;;;;5061905;28;20040;-41
2021/09/30 08:01:23;;;;;;;9.13;3.28;;;23.20;52.80;;;;;;5061327;28;20044;-41
2021/09/30 08:03:50;;;;;;;9.38;2.90;;;23.20;52.70;;;;;;5053730;28;20047;-41
2021/09/30 08:06:18;;;;;;;10.82;3.08;;;23.20;52.40;;;;;;5057089;28;20044;-41
2021/09/30 08:08:45;;;;;;;10.30;3.15;;;23.20;52.20;;;;;;5055370;28;20044;-41
2021/09/30 08:11:12;;;;;;;17.23;3.58;;;23.20;52.10;;;;;;5055665;28;20029;-41
2021/09/30 08:13:39;;;;;;;3.28;1.60;;;23.20;51.90;;;;;;5061751;28;20061;-41
2021/09/30 08:16:08;;;;;;;8.50;1.90;;;23.20;51.70;;;;;;5066377;28;20051;-43
2021/09/30 08:18:35;;;;;;;6.97;2.72;;;23.20;51.60;;;;;;5060457;28;20048;-42
2021/09/30 08:21:02;;;;;;;2.67;1.23;;;23.20;51.50;;;;;;5065718;28;20044;-42
2021/09/30 08:23:29;;;;;;;7.28;1.45;;;23.20;51.40;;;;;;5057843;28;20497;-41
2021/09/30 08:25:56;;;;;;;5.75;2.25;;;23.20;51.20;;;;;;5048270;28;20410;-41
2021/09/30 08:28:23;;;;;;;2.22;0.68;;;23.20;51.10;;;;;;5063882;28;20152;-42
2021/09/30 08:30:51;;;;;;;3.97;1.98;;;23.20;51.00;;;;;;5064387;28;20513;-42
2021/09/30 08:33:22;;;;;;;6.07;1.30;;;23.20;51.00;;;;;;5058161;28;20064;-42
2021/09/30 08:35:50;;;;;;;3.85;1.33;;;23.20;51.00;;;;;;5064484;28;20041;-44
2021/09/30 08:38:18;;;;;;;5.13;0.90;;;23.20;50.90;;;;;;5063529;28;20757;-44
2021/09/30 08:40:46;;;;;;;5.90;0.77;;;23.20;50.70;;;;;;5067978;28;20052;-41
2021/09/30 08:43:13;;;;;;;2.40;1.05;;;23.20;50.70;;;;;;5067839;28;20059;-41
2021/09/30 08:45:41;;;;;;;3.15;0.80;;;23.20;50.50;;;;;;5069146;28;20043;-42
2021/09/30 08:48:08;;;;;;;4.95;1.42;;;23.20;50.40;;;;;;5066608;28;20059;-41
2021/09/30 08:50:40;;;;;;;3.80;1.75;;;23.20;50.20;;;;;;5065953;28;20067;-41
2021/09/30 08:53:08;;;;;;;7.10;1.35;;;23.20;50.20;;;;;;5062849;28;20127;-42
2021/09/30 08:55:36;;;;;;;2.03;0.70;;;23.20;50.30;;;;;;5066078;28;20508;-42
2021/09/30 08:58:04;;;;;;;9.20;1.08;;;23.20;50.30;;;;;;5069107;28;20127;-42
2021/09/30 09:00:33;;;;;;;1.83;0.73;;;23.30;50.50;;;;;;5064776;28;20047;-41
2021/09/30 09:03:00;;;;;;;4.18;0.60;;;23.30;50.30;;;;;;5065789;28;20122;-41
2021/09/30 09:05:27;;;;;;;3.50;0.50;;;23.30;50.30;;;;;;5061694;28;20056;-41
2021/09/30 09:07:57;;;;;;;5.45;0.57;;;23.30;50.30;;;;;;5058157;28;20128;-41
2021/09/30 09:10:26;;;;;;;3.25;0.60;;;23.30;50.80;;;;;;5066278;28;20055;-43
2021/09/30 09:13:09;;;;;;;4.40;0.30;;;23.30;50.20;;;;;;5067907;28;20048;-41
2021/09/30 09:15:40;;;;;;;5.22;0.57;;;23.30;50.10;;;;;;5067404;28;20174;-42
2021/09/30 09:18:20;;;;;;;4.43;0.30;;;23.30;50.10;;;;;;5066575;28;20033;-42
2021/09/30 09:20:49;;;;;;;1.65;0.47;;;23.30;50.10;;;;;;5062834;28;20716;-43
2021/09/30 09:23:18;;;;;;;2.05;0.25;;;23.30;50.10;;;;;;5066015;28;20097;-40
2021/09/30 09:25:45;;;;;;;1.80;0.55;;;23.30;50.00;;;;;;5065748;28;20055;-42
2021/09/30 09:28:12;;;;;;;5.03;2.08;;;23.30;49.90;;;;;;5068064;28;20572;-43
2021/09/30 09:30:42;;;;;;;2.47;0.40;;;23.30;49.90;;;;;;5070056;28;20056;-40
2021/09/30 09:33:12;;;;;;;1.80;0.30;;;23.40;49.90;;;;;;5061411;28;20036;-43
2021/09/30 09:35:53;;;;;;;2.00;0.10;;;23.30;49.80;;;;;;5057825;28;20029;-41
2021/09/30 09:38:24;;;;;;;2.15;0.17;;;23.30;49.70;;;;;;5061665;28;20484;-42
2021/09/30 09:40:57;;;;;;;2.10;0.20;;;23.30;49.70;;;;;;5055251;28;20041;-43
2021/09/30 09:43:33;;;;;;;2.20;0.30;;;23.40;49.70;;;;;;5069206;28;20516;-43
2021/09/30 09:46:02;;;;;;;0.50;0.43;;;23.40;49.70;;;;;;5067653;28;20068;-40
2021/09/30 09:48:32;;;;;;;2.10;0.93;;;23.40;49.70;;;;;;5051233;28;20036;-42
2021/09/30 09:50:59;;;;;;;0.75;0.10;;;23.50;49.80;;;;;;5067088;28;20040;-43
2021/09/30 09:53:29;;;;;;;1.58;0.52;;;23.50;49.70;;;;;;5068079;28;20025;-44
2021/09/30 09:56:13;;;;;;;3.58;0.10;;;23.50;49.60;;;;;;5051543;28;20402;-42
2021/09/30 09:58:49;;;;;;;1.45;0.20;;;23.50;49.40;;;;;;5055121;28;20044;-42
2021/09/30 10:01:22;;;;;;;1.33;0.13;;;23.50;49.30;;;;;;5065470;28;20037;-43
2021/09/30 10:03:52;;;;;;;2.42;0.20;;;23.50;49.20;;;;;;5053843;28;20060;-43
2021/09/30 10:06:20;;;;;;;1.48;0.10;;;23.50;49.10;;;;;;5052243;28;20069;-43
2021/09/30 10:08:48;;;;;;;0.88;0.10;;;23.50;49.10;;;;;;5051947;28;20041;-42
2021/09/30 10:11:15;;;;;;;0.40;0.10;;;23.50;49.00;;;;;;5052554;28;20033;-42
2021/09/30 10:13:43;;;;;;;1.38;0.13;;;23.50;48.90;;;;;;5050305;28;20129;-43
2021/09/30 10:16:10;;;;;;;5.57;0.17;;;23.60;49.00;;;;;;5052192;28;20041;-47
2021/09/30 10:18:38;;;;;;;8.40;1.48;;;23.60;49.20;;;;;;5062213;28;20067;-45
2021/09/30 10:21:05;;;;;;;1.23;0.10;;;23.60;49.30;;;;;;5056315;28;20037;-46
2021/09/30 10:23:35;;;;;;;7.60;0.30;;;23.60;49.30;;;;;;5051539;28;20037;-46
2021/09/30 10:26:12;;;;;;;7.00;0.10;;;23.60;49.20;;;;;;5050171;28;20154;-45
2021/09/30 10:28:41;;;;;;;8.60;0.25;;;23.70;49.20;;;;;;5057705;28;20032;-45
2021/09/30 10:31:26;;;;;;;5.88;0.20;;;23.60;49.50;;;;;;5062845;28;20509;-43
2021/09/30 10:33:54;;;;;;;7.65;0.10;;;23.60;49.90;;;;;;5049367;28;20045;-45
2021/09/30 10:36:39;;;;;;;1.10;0.13;;;23.60;49.80;;;;;;5051762;28;20036;-41
2021/09/30 10:39:25;;;;;;;5.13;0.30;;;23.70;49.50;;;;;;5051714;28;20051;-45
2021/09/30 10:41:55;;;;;;;7.18;0.95;;;23.70;49.30;;;;;;5051380;28;20065;-44
2021/09/30 10:44:24;;;;;;;0.57;0.10;;;23.60;49.10;;;;;;5051630;28;20039;-43
2021/09/30 10:46:57;;;;;;;5.43;0.20;;;23.60;48.80;;;;;;5051528;28;20067;-46
2021/09/30 10:49:35;;;;;;;5.10;0.10;;;23.70;48.70;;;;;;5051344;28;20042;-46
2021/09/30 10:52:20;;;;;;;3.03;0.10;;;23.70;48.50;;;;;;5064610;28;20094;-48
2021/09/30 10:54:50;;;;;;;4.05;0.10;;;23.70;48.30;;;;;;5049753;28;20143;-45
2021/09/30 10:57:39;;;;;;;1.55;0.30;;;23.70;48.10;;;;;;5061871;28;20119;-45
2021/09/30 11:00:09;;;;;;;1.65;0.05;;;23.70;47.90;;;;;;5060597;28;20528;-44
2021/09/30 11:03:21;;;;;;;0.32;0.10;;;23.70;47.80;;;;;;5058254;28;20036;-44
2021/09/30 11:06:17;;;;;;;0.40;0.00;;;23.70;47.50;;;;;;5055254;28;20044;-44
2021/09/30 11:08:48;;;;;;;0.88;0.05;;;23.70;47.30;;;;;;5046365;28;20051;-45
2021/09/30 11:11:22;;;;;;;1.50;0.10;;;23.70;47.20;;;;;;5062329;28;20044;-45
2021/09/30 11:14:15;;;;;;;1.08;0.10;;;23.70;47.10;;;;;;5063554;28;20127;-45
2021/09/30 11:16:46;;;;;;;2.22;0.10;;;23.70;46.90;;;;;;5049158;28;20041;-45
2021/09/30 11:19:28;;;;;;;1.52;0.30;;;23.70;46.80;;;;;;5065344;28;20037;-45
2021/09/30 11:21:55;;;;;;;1.73;0.00;;;23.70;46.60;;;;;;5064265;28;20048;-45
2021/09/30 11:24:40;;;;;;;0.52;0.30;;;23.70;46.50;;;;;;5050970;28;20057;-44
2021/09/30 11:27:35;;;;;;;0.32;0.00;;;23.80;46.30;;;;;;5058031;28;20044;-45
2021/09/30 11:30:25;;;;;;;0.15;0.10;;;23.80;46.20;;;;;;5053507;28;20048;-45
2021/09/30 11:32:59;;;;;;;0.35;0.00;;;23.80;46.00;;;;;;5051611;28;20103;-45
2021/09/30 11:35:28;;;;;;;0.55;0.05;;;23.90;45.90;;;;;;5050619;28;20044;-46
2021/09/30 11:37:55;;;;;;;0.50;0.10;;;23.90;45.70;;;;;;5057092;28;20522;-47
2021/09/30 11:40:22;;;;;;;1.55;0.20;;;23.90;45.50;;;;;;5049329;28;20053;-45
2021/09/30 11:42:53;;;;;;;2.38;0.45;;;23.90;45.40;;;;;;5061913;28;20056;-45
2021/09/30 11:45:24;;;;;;;1.25;0.10;;;23.90;45.10;;;;;;5058852;28;20122;-45
2021/09/30 11:48:00;;;;;;;1.13;0.10;;;24.00;45.10;;;;;;5055099;28;20041;-46
2021/09/30 11:50:27;;;;;;;0.20;0.00;;;24.00;44.90;;;;;;5050917;28;20049;-44
2021/09/30 11:53:04;;;;;;;0.43;0.00;;;24.00;44.70;;;;;;5050362;28;20051;-44
2021/09/30 11:55:34;;;;;;;1.10;0.10;;;24.10;45.20;;;;;;5046993;28;20091;-46
2021/09/30 11:58:03;;;;;;;2.28;0.22;;;24.10;44.50;;;;;;5047732;28;20040;-44
2021/09/30 12:00:33;;;;;;;1.80;0.10;;;24.10;44.40;;;;;;5057496;28;20037;-45
2021/09/30 12:03:04;;;;;;;0.55;0.10;;;24.10;44.20;;;;;;5056692;28;20041;-44
2021/09/30 12:05:34;;;;;;;1.85;0.30;;;24.20;44.20;;;;;;5052999;28;20496;-44
2021/09/30 12:08:03;;;;;;;1.00;0.10;;;24.20;43.90;;;;;;5049020;28;20048;-46
2021/09/30 12:10:32;;;;;;;5.05;0.10;;;24.20;43.80;;;;;;5060161;28;20421;-44
2021/09/30 12:12:59;;;;;;;0.65;0.10;;;24.20;43.60;;;;;;5064793;28;20133;-45
2021/09/30 12:15:27;;;;;;;1.88;0.10;;;24.20;43.40;;;;;;5056068;28;20048;-44
2021/09/30 12:17:55;;;;;;;1.38;0.10;;;24.30;43.40;;;;;;5059314;28;20048;-45
2021/09/30 12:20:22;;;;;;;1.98;0.30;;;24.30;43.20;;;;;;5062836;28;20040;-43
2021/09/30 12:22:54;;;;;;;0.65;0.10;;;24.30;43.10;;;;;;5054336;28;20127;-46
2021/09/30 12:25:25;;;;;;;4.38;0.10;;;24.30;43.00;;;;;;5053439;28;20527;-45
2021/09/30 12:27:54;;;;;;;2.92;0.08;;;24.40;43.00;;;;;;5063731;28;20068;-44
2021/09/30 12:30:23;;;;;;;1.20;0.00;;;24.40;43.00;;;;;;5063446;28;20408;-44
2021/09/30 12:32:52;;;;;;;3.10;0.05;;;24.40;42.90;;;;;;5058815;28;20040;-43
2021/09/30 12:35:22;;;;;;;1.75;0.30;;;24.40;42.90;;;;;;5054394;28;20525;-44
2021/09/30 12:37:51;;;;;;;0.55;0.55;;;24.40;42.80;;;;;;5053705;28;20051;-44
2021/09/30 12:40:22;;;;;;;0.22;0.10;;;24.50;42.80;;;;;;5050343;28;20513;-44
2021/09/30 12:43:01;;;;;;;3.50;0.10;;;24.50;42.70;;;;;;5067631;28;20048;-45
2021/09/30 12:45:30;;;;;;;1.00;0.10;;;24.50;42.70;;;;;;5054301;28;20079;-45
2021/09/30 12:48:05;;;;;;;2.05;0.50;;;24.60;43.40;;;;;;5064348;28;20505;-44
2021/09/30 12:50:44;;;;;;;1.70;0.10;;;24.60;42.60;;;;;;5061082;28;20136;-44
2021/09/30 12:53:13;;;;;;;0.38;0.00;;;24.60;42.60;;;;;;5054301;28;20037;-44
2021/09/30 12:55:41;;;;;;;0.20;0.10;;;24.60;42.50;;;;;;5051832;28;20405;-44
2021/09/30 12:58:28;;;;;;;0.28;0.17;;;24.60;42.40;;;;;;5065661;28;20610;-44
2021/09/30 13:00:57;;;;;;;0.10;0.00;;;24.70;42.30;;;;;;5066900;28;20068;-46
2021/09/30 13:03:25;;;;;;;0.73;0.05;;;24.70;42.30;;;;;;5055489;28;20052;-47
2021/09/30 13:05:55;;;;;;;0.20;0.20;;;24.70;42.20;;;;;;5053724;28;20060;-45
2021/09/30 13:08:37;;;;;;;0.10;0.10;;;24.70;42.20;;;;;;5060594;28;20521;-45
2021/09/30 13:11:32;;;;;;;0.40;0.10;;;24.80;42.20;;;;;;5055350;28;20041;-43
2021/09/30 13:14:28;;;;;;;3.03;0.10;;;24.80;42.20;;;;;;5053159;28;20126;-45
2021/09/30 13:16:57;;;;;;;1.15;0.00;;;24.80;42.20;;;;;;5053019;28;20033;-45
2021/09/30 13:19:40;;;;;;;0.80;0.10;;;24.80;42.30;;;;;;5049780;28;20075;-46
2021/09/30 13:22:09;;;;;;;0.30;0.00;;;24.90;42.20;;;;;;5062082;28;20044;-46
2021/09/30 13:24:38;;;;;;;0.30;0.10;;;24.90;42.20;;;;;;5051928;28;20513;-44
2021/09/30 13:27:07;;;;;;;2.28;0.10;;;24.90;42.20;;;;;;5054740;28;20579;-43
2021/09/30 13:29:35;;;;;;;0.82;0.80;;;24.90;42.70;;;;;;5056393;28;20051;-46
2021/09/30 13:32:02;;;;;;;2.25;0.10;;;24.90;42.10;;;;;;5068417;28;20040;-44
2021/09/30 13:34:29;;;;;;;0.52;0.52;;;24.90;42.10;;;;;;5068599;28;20032;-44
2021/09/30 13:36:56;;;;;;;0.93;0.00;;;25.00;42.10;;;;;;5066348;28;20036;-45
2021/09/30 13:39:25;;;;;;;1.55;0.55;;;25.00;42.00;;;;;;5053849;28;20983;-46
2021/09/30 13:41:52;;;;;;;0.30;0.10;;;25.00;41.90;;;;;;5054382;28;20044;-48
2021/09/30 13:44:19;;;;;;;0.10;0.10;;;25.00;41.80;;;;;;5060871;28;20048;-44
2021/09/30 13:46:47;;;;;;;0.03;0.03;;;25.10;41.90;;;;;;5053329;28;20509;-46
2021/09/30 13:49:14;;;;;;;0.40;0.10;;;25.10;41.80;;;;;;5049258;28;20234;-47
2021/09/30 13:51:42;;;;;;;0.45;0.00;;;25.10;41.70;;;;;;5064128;28;20043;-44
2021/09/30 13:54:09;;;;;;;0.43;0.10;;;25.10;41.70;;;;;;5055719;28;20045;-46
2021/09/30 13:56:38;;;;;;;0.40;0.10;;;25.10;41.70;;;;;;5058254;28;20077;-46
2021/09/30 13:59:05;;;;;;;0.00;0.00;;;25.20;41.70;;;;;;5062650;28;20409;-45
2021/09/30 14:01:32;;;;;;;0.63;0.10;;;25.10;41.60;;;;;;5065070;28;20048;-46
2021/09/30 14:03:59;;;;;;;1.65;0.10;;;25.20;41.60;;;;;;5062539;28;20703;-45
2021/09/30 14:06:26;;;;;;;0.68;0.10;;;25.20;41.60;;;;;;5048960;28;20033;-46
2021/09/30 14:08:54;;;;;;;0.52;0.52;;;25.20;41.60;;;;;;5057401;28;20614;-43
2021/09/30 14:11:23;;;;;;;0.10;0.10;;;25.30;41.60;;;;;;5057810;28;20044;-44
2021/09/30 14:13:53;;;;;;;0.38;0.10;;;25.30;41.60;;;;;;5065240;28;20053;-45
2021/09/30 14:16:21;;;;;;;0.10;0.00;;;25.30;41.50;;;;;;5050450;28;20528;-44
2021/09/30 14:18:48;;;;;;;0.10;0.00;;;25.30;41.50;;;;;;5053967;28;20073;-44
2021/09/30 14:21:16;;;;;;;0.70;0.05;;;25.30;41.50;;;;;;5065995;28;20053;-44
2021/09/30 14:23:43;;;;;;;0.10;0.10;;;25.30;41.40;;;;;;5056179;28;20409;-47
2021/09/30 14:26:10;;;;;;;0.75;0.05;;;25.30;41.40;;;;;;5051906;28;20386;-46
2021/09/30 14:28:37;;;;;;;1.48;0.20;;;25.40;41.40;;;;;;5050248;28;20041;-46
2021/09/30 14:31:06;;;;;;;1.05;0.10;;;25.30;41.90;;;;;;5065354;28;20390;-48
2021/09/30 14:33:33;;;;;;;0.10;0.10;;;25.40;41.30;;;;;;5063597;28;20049;-44
2021/09/30 14:36:01;;;;;;;0.10;0.00;;;25.40;41.30;;;;;;5053264;28;20055;-45
2021/09/30 14:38:28;;;;;;;0.93;0.10;;;25.40;41.30;;;;;;5057981;28;20043;-44
2021/09/30 14:40:56;;;;;;;0.50;0.10;;;25.40;41.20;;;;;;5051161;28;20130;-44
2021/09/30 14:43:26;;;;;;;0.70;0.08;;;25.40;41.10;;;;;;5051061;28;20047;-44
2021/09/30 14:45:54;;;;;;;0.15;0.00;;;25.40;41.10;;;;;;5049316;28;20545;-44
2021/09/30 14:48:22;;;;;;;2.20;0.10;;;25.40;41.10;;;;;;5052517;28;20056;-42
2021/09/30 14:50:49;;;;;;;0.15;0.00;;;25.50;41.10;;;;;;5050692;28;20041;-44
2021/09/30 14:53:16;;;;;;;0.55;0.10;;;25.50;41.00;;;;;;5051992;28;20037;-44
2021/09/30 14:55:44;;;;;;;0.68;0.10;;;25.50;41.00;;;;;;5049736;28;20767;-43
2021/09/30 14:58:11;;;;;;;0.25;0.00;;;25.50;40.90;;;;;;5060382;28;20079;-47
2021/09/30 15:00:38;;;;;;;1.27;0.10;;;25.50;40.90;;;;;;5063522;28;20049;-43
2021/09/30 15:03:05;;;;;;;0.85;0.10;;;25.50;40.80;;;;;;5063445;28;20515;-43
2021/09/30 15:05:34;;;;;;;0.10;0.00;;;25.50;40.90;;;;;;5059255;28;20049;-46
2021/09/30 15:08:02;;;;;;;0.25;0.25;;;25.50;40.60;;;;;;5049842;28;20052;-48
2021/09/30 15:10:29;;;;;;;0.50;0.10;;;25.50;40.60;;;;;;5047533;28;20075;-47
2021/09/30 15:12:56;;;;;;;0.85;0.25;;;25.50;40.50;;;;;;5054790;28;20047;-46
2021/09/30 15:15:23;;;;;;;0.10;0.00;;;25.50;40.50;;;;;;5051840;28;20045;-48
2021/09/30 15:17:56;;;;;;;0.00;0.00;;;25.50;40.50;;;;;;5050727;28;20043;-47
2021/09/30 15:23:13;;;;;;;0.10;0.00;;;25.50;40.50;;;;;;5054734;28;20098;-46
2021/09/30 15:25:41;;;;;;;1.55;0.10;;;25.50;40.50;;;;;;5053500;28;20046;-45
2021/09/30 15:28:10;;;;;;;1.17;0.10;;;25.50;40.40;;;;;;5059171;28;20056;-48
2021/09/30 15:30:40;;;;;;;0.90;0.00;;;25.50;40.50;;;;;;5060495;28;20135;-46
2021/09/30 15:33:09;;;;;;;0.50;0.10;;;25.40;40.40;;;;;;5063368;28;20095;-47
2021/09/30 15:35:36;;;;;;;0.20;0.10;;;25.40;40.30;;;;;;5058541;28;20076;-47